sensor_id;sensor_type;location;lat;lon;timestamp;pressure;altitude;pressure_sealevel;temperature;humidity
14117;BME280;7137;51.436;6.544;2022-07-17T00:01:06;102259.09;;;16.47;65.26
14117;BME280;7137;51.436;6.544;2022-07-17T00:04:07;102255.59;;;16.45;64.25
14117;BME280;7137;51.436;6.544;2022-07-17T00:07:09;102262.81;;;16.40;64.29
14117;BME280;7137;51.436;6.544;2022-07-17T00:10:11;102257.81;;;16.31;64.54
14117;BME280;7137;51.436;6.544;2022-07-17T00:13:12;102264.00;;;16.30;64.56
14117;BME280;7137;51.436;6.544;2022-07-17T00:16:15;102254.34;;;16.29;64.11
14117;BME280;7137;51.436;6.544;2022-07-17T00:19:17;102248.00;;;16.36;64.04
14117;BME280;7137;51.436;6.544;2022-07-17T00:22:18;102258.59;;;16.35;64.51
14117;BME280;7137;51.436;6.544;2022-07-17T00:25:21;102255.22;;;16.29;64.71
14117;BME280;7137;51.436;6.544;2022-07-17T00:28:23;102258.88;;;16.25;65.79
14117;BME280;7137;51.436;6.544;2022-07-17T00:31:27;102257.47;;;16.14;65.85
14117;BME280;7137;51.436;6.544;2022-07-17T00:34:28;102253.19;;;16.10;65.81
14117;BME280;7137;51.436;6.544;2022-07-17T00:37:30;102262.00;;;16.09;66.10
14117;BME280;7137;51.436;6.544;2022-07-17T00:40:32;102260.19;;;16.11;65.27
14117;BME280;7137;51.436;6.544;2022-07-17T00:43:33;102262.78;;;16.12;65.74
14117;BME280;7137;51.436;6.544;2022-07-17T00:46:36;102270.28;;;16.26;65.12
14117;BME280;7137;51.436;6.544;2022-07-17T00:49:38;102264.44;;;16.15;64.75
14117;BME280;7137;51.436;6.544;2022-07-17T00:52:40;102261.16;;;16.08;65.19
14117;BME280;7137;51.436;6.544;2022-07-17T00:55:42;102257.56;;;16.11;65.32
14117;BME280;7137;51.436;6.544;2022-07-17T00:58:44;102251.72;;;15.99;65.51
14117;BME280;7137;51.436;6.544;2022-07-17T01:01:47;102256.75;;;16.09;66.48
14117;BME280;7137;51.436;6.544;2022-07-17T01:04:48;102251.63;;;16.02;65.03
14117;BME280;7137;51.436;6.544;2022-07-17T01:07:50;102254.75;;;15.86;66.33
14117;BME280;7137;51.436;6.544;2022-07-17T01:10:52;102255.03;;;15.77;66.72
14117;BME280;7137;51.436;6.544;2022-07-17T01:13:54;102251.75;;;15.68;66.77
14117;BME280;7137;51.436;6.544;2022-07-17T01:16:57;102249.16;;;15.67;67.27
14117;BME280;7137;51.436;6.544;2022-07-17T01:19:58;102254.13;;;15.43;69.32
14117;BME280;7137;51.436;6.544;2022-07-17T01:23:03;102256.19;;;15.32;68.93
14117;BME280;7137;51.436;6.544;2022-07-17T01:26:05;102251.91;;;15.28;69.10
14117;BME280;7137;51.436;6.544;2022-07-17T01:29:06;102251.19;;;15.23;69.55
14117;BME280;7137;51.436;6.544;2022-07-17T01:32:09;102254.94;;;15.13;70.12
14117;BME280;7137;51.436;6.544;2022-07-17T01:35:13;102247.09;;;15.11;70.61
14117;BME280;7137;51.436;6.544;2022-07-17T01:38:16;102247.06;;;15.13;70.28
14117;BME280;7137;51.436;6.544;2022-07-17T01:41:18;102243.56;;;15.12;70.63
14117;BME280;7137;51.436;6.544;2022-07-17T01:44:19;102249.81;;;15.08;70.48
14117;BME280;7137;51.436;6.544;2022-07-17T01:47:21;102249.72;;;15.11;70.29
14117;BME280;7137;51.436;6.544;2022-07-17T01:50:23;102250.38;;;15.20;70.20
14117;BME280;7137;51.436;6.544;2022-07-17T01:53:26;102244.84;;;15.30;69.28
14117;BME280;7137;51.436;6.544;2022-07-17T01:56:28;102243.38;;;15.19;70.28
14117;BME280;7137;51.436;6.544;2022-07-17T01:59:29;102237.63;;;15.04;71.05
14117;BME280;7137;51.436;6.544;2022-07-17T02:02:31;102225.56;;;14.96;71.60
14117;BME280;7137;51.436;6.544;2022-07-17T02:05:32;102220.53;;;14.87;71.96
14117;BME280;7137;51.436;6.544;2022-07-17T02:08:35;102227.59;;;14.84;71.41
14117;BME280;7137;51.436;6.544;2022-07-17T02:11:37;102229.53;;;14.78;71.79
14117;BME280;7137;51.436;6.544;2022-07-17T02:14:38;102232.25;;;14.73;72.87
14117;BME280;7137;51.436;6.544;2022-07-17T02:17:41;102225.19;;;14.75;72.41
14117;BME280;7137;51.436;6.544;2022-07-17T02:20:42;102231.38;;;14.73;72.46
14117;BME280;7137;51.436;6.544;2022-07-17T02:23:49;102236.78;;;14.68;72.24
14117;BME280;7137;51.436;6.544;2022-07-17T02:26:51;102244.78;;;14.62;72.30
14117;BME280;7137;51.436;6.544;2022-07-17T02:29:52;102234.44;;;14.56;73.08
14117;BME280;7137;51.436;6.544;2022-07-17T02:32:54;102241.63;;;14.48;72.82
14117;BME280;7137;51.436;6.544;2022-07-17T02:35:56;102233.84;;;14.80;71.58
14117;BME280;7137;51.436;6.544;2022-07-17T02:38:58;102237.38;;;14.79;72.27
14117;BME280;7137;51.436;6.544;2022-07-17T02:42:00;102238.63;;;14.65;73.28
14117;BME280;7137;51.436;6.544;2022-07-17T02:45:02;102238.75;;;14.59;73.58
14117;BME280;7137;51.436;6.544;2022-07-17T02:48:04;102237.41;;;14.39;74.93
14117;BME280;7137;51.436;6.544;2022-07-17T02:51:05;102237.75;;;14.24;74.84
14117;BME280;7137;51.436;6.544;2022-07-17T02:54:09;102249.47;;;14.09;75.28
14117;BME280;7137;51.436;6.544;2022-07-17T02:57:11;102252.06;;;14.11;75.21
14117;BME280;7137;51.436;6.544;2022-07-17T03:00:15;102255.59;;;14.10;76.29
14117;BME280;7137;51.436;6.544;2022-07-17T03:03:17;102265.25;;;14.09;75.73
14117;BME280;7137;51.436;6.544;2022-07-17T03:06:20;102256.25;;;14.19;74.47
14117;BME280;7137;51.436;6.544;2022-07-17T03:09:23;102255.78;;;14.41;74.04
14117;BME280;7137;51.436;6.544;2022-07-17T03:12:24;102262.09;;;14.32;74.48
14117;BME280;7137;51.436;6.544;2022-07-17T03:15:26;102264.16;;;14.18;76.24
14117;BME280;7137;51.436;6.544;2022-07-17T03:18:27;102255.50;;;14.14;75.16
14117;BME280;7137;51.436;6.544;2022-07-17T03:21:29;102257.19;;;14.17;75.85
14117;BME280;7137;51.436;6.544;2022-07-17T03:24:32;102259.19;;;14.04;75.82
14117;BME280;7137;51.436;6.544;2022-07-17T03:27:33;102259.06;;;14.12;75.56
14117;BME280;7137;51.436;6.544;2022-07-17T03:30:35;102257.44;;;14.05;75.58
14117;BME280;7137;51.436;6.544;2022-07-17T03:33:37;102258.19;;;14.11;74.91
14117;BME280;7137;51.436;6.544;2022-07-17T03:36:39;102255.34;;;14.20;74.29
14117;BME280;7137;51.436;6.544;2022-07-17T03:39:42;102251.03;;;14.18;75.50
14117;BME280;7137;51.436;6.544;2022-07-17T03:42:43;102246.63;;;14.18;76.19
14117;BME280;7137;51.436;6.544;2022-07-17T03:45:45;102255.50;;;14.14;76.60
14117;BME280;7137;51.436;6.544;2022-07-17T03:48:46;102263.34;;;14.16;75.73
14117;BME280;7137;51.436;6.544;2022-07-17T03:51:48;102252.81;;;14.16;75.13
14117;BME280;7137;51.436;6.544;2022-07-17T03:54:51;102251.81;;;14.21;75.40
14117;BME280;7137;51.436;6.544;2022-07-17T03:57:53;102257.19;;;14.17;75.43
14117;BME280;7137;51.436;6.544;2022-07-17T04:00:54;102253.88;;;14.09;77.41
14117;BME280;7137;51.436;6.544;2022-07-17T04:03:56;102247.78;;;14.05;77.69
14117;BME280;7137;51.436;6.544;2022-07-17T04:06:57;102255.56;;;14.11;76.21
14117;BME280;7137;51.436;6.544;2022-07-17T04:10:00;102257.19;;;14.17;76.16
14117;BME280;7137;51.436;6.544;2022-07-17T04:13:02;102256.25;;;14.19;74.94
14117;BME280;7137;51.436;6.544;2022-07-17T04:16:04;102256.91;;;14.29;75.55
14117;BME280;7137;51.436;6.544;2022-07-17T04:19:06;102264.75;;;14.31;75.30
14117;BME280;7137;51.436;6.544;2022-07-17T04:22:07;102259.41;;;14.35;75.75
14117;BME280;7137;51.436;6.544;2022-07-17T04:25:11;102268.94;;;14.41;74.63
14117;BME280;7137;51.436;6.544;2022-07-17T04:28:12;102265.31;;;14.46;74.54
14117;BME280;7137;51.436;6.544;2022-07-17T04:31:14;102269.69;;;14.47;73.79
14117;BME280;7137;51.436;6.544;2022-07-17T04:34:17;102274.63;;;14.61;73.34
14117;BME280;7137;51.436;6.544;2022-07-17T04:37:18;102272.91;;;14.60;74.01
14117;BME280;7137;51.436;6.544;2022-07-17T04:40:21;102270.03;;;14.71;73.58
14117;BME280;7137;51.436;6.544;2022-07-17T04:43:23;102265.22;;;14.88;72.61
14117;BME280;7137;51.436;6.544;2022-07-17T04:46:24;102264.97;;;14.99;72.92
14117;BME280;7137;51.436;6.544;2022-07-17T04:49:26;102277.28;;;14.97;72.79
14117;BME280;7137;51.436;6.544;2022-07-17T04:52:27;102275.50;;;14.99;72.80
14117;BME280;7137;51.436;6.544;2022-07-17T04:55:31;102269.09;;;15.09;71.71
14117;BME280;7137;51.436;6.544;2022-07-17T04:58:33;102285.28;;;15.28;71.68
14117;BME280;7137;51.436;6.544;2022-07-17T05:01:34;102284.78;;;15.13;72.67
14117;BME280;7137;51.436;6.544;2022-07-17T05:04:36;102291.69;;;15.18;72.77
14117;BME280;7137;51.436;6.544;2022-07-17T05:07:38;102289.59;;;15.30;72.72
14117;BME280;7137;51.436;6.544;2022-07-17T05:10:41;102295.06;;;15.57;71.39
14117;BME280;7137;51.436;6.544;2022-07-17T05:13:42;102300.53;;;15.49;71.26
14117;BME280;7137;51.436;6.544;2022-07-17T05:16:44;102306.03;;;15.40;71.85
14117;BME280;7137;51.436;6.544;2022-07-17T05:19:45;102302.69;;;15.33;72.07
14117;BME280;7137;51.436;6.544;2022-07-17T05:22:47;102306.03;;;15.40;71.87
14117;BME280;7137;51.436;6.544;2022-07-17T05:25:50;102310.53;;;15.70;70.93
14117;BME280;7137;51.436;6.544;2022-07-17T05:28:51;102316.91;;;15.94;70.88
14117;BME280;7137;51.436;6.544;2022-07-17T05:31:53;102316.19;;;15.88;70.62
14117;BME280;7137;51.436;6.544;2022-07-17T05:34:55;102316.75;;;15.99;71.77
14117;BME280;7137;51.436;6.544;2022-07-17T05:37:56;102314.84;;;16.04;72.45
14117;BME280;7137;51.436;6.544;2022-07-17T05:41:00;102306.88;;;16.37;70.97
14117;BME280;7137;51.436;6.544;2022-07-17T05:44:02;102304.41;;;16.89;68.24
14117;BME280;7137;51.436;6.544;2022-07-17T05:47:04;102294.47;;;17.49;65.39
14117;BME280;7137;51.436;6.544;2022-07-17T05:50:06;102300.09;;;18.13;62.32
14117;BME280;7137;51.436;6.544;2022-07-17T05:53:08;102308.09;;;21.84;52.34
14117;BME280;7137;51.436;6.544;2022-07-17T05:56:11;102315.38;;;25.22;43.16
14117;BME280;7137;51.436;6.544;2022-07-17T05:59:13;102323.19;;;27.70;38.01
14117;BME280;7137;51.436;6.544;2022-07-17T06:02:14;102322.09;;;29.26;34.57
14117;BME280;7137;51.436;6.544;2022-07-17T06:05:16;102319.69;;;30.95;30.07
14117;BME280;7137;51.436;6.544;2022-07-17T06:08:18;102313.72;;;32.52;27.90
14117;BME280;7137;51.436;6.544;2022-07-17T06:11:21;102313.22;;;33.19;26.61
14117;BME280;7137;51.436;6.544;2022-07-17T06:14:23;102308.03;;;34.46;25.54
14117;BME280;7137;51.436;6.544;2022-07-17T06:17:25;102316.34;;;34.36;25.46
14117;BME280;7137;51.436;6.544;2022-07-17T06:20:28;102314.53;;;34.86;25.18
14117;BME280;7137;51.436;6.544;2022-07-17T06:23:30;102304.06;;;35.48;23.31
14117;BME280;7137;51.436;6.544;2022-07-17T06:26:33;102304.69;;;35.66;23.73
14117;BME280;7137;51.436;6.544;2022-07-17T06:29:35;102287.72;;;35.48;23.99
14117;BME280;7137;51.436;6.544;2022-07-17T06:32:37;102293.00;;;35.25;24.41
14117;BME280;7137;51.436;6.544;2022-07-17T06:35:38;102294.28;;;36.17;23.01
14117;BME280;7137;51.436;6.544;2022-07-17T06:38:40;102301.53;;;36.64;22.36
14117;BME280;7137;51.436;6.544;2022-07-17T06:41:43;102298.59;;;37.34;22.31
14117;BME280;7137;51.436;6.544;2022-07-17T06:44:44;102297.00;;;37.98;20.74
14117;BME280;7137;51.436;6.544;2022-07-17T06:47:46;102281.97;;;38.39;20.77
14117;BME280;7137;51.436;6.544;2022-07-17T06:50:47;102296.53;;;38.10;20.80
14117;BME280;7137;51.436;6.544;2022-07-17T06:53:49;102291.00;;;37.59;22.12
14117;BME280;7137;51.436;6.544;2022-07-17T06:56:52;102285.28;;;38.55;20.26
14117;BME280;7137;51.436;6.544;2022-07-17T06:59:54;102289.97;;;38.40;20.36
14117;BME280;7137;51.436;6.544;2022-07-17T07:02:55;102293.91;;;38.95;19.48
14117;BME280;7137;51.436;6.544;2022-07-17T07:05:57;102290.84;;;39.61;19.26
14117;BME280;7137;51.436;6.544;2022-07-17T07:08:59;102301.94;;;40.35;19.05
14117;BME280;7137;51.436;6.544;2022-07-17T07:12:03;102292.44;;;40.38;18.58
14117;BME280;7137;51.436;6.544;2022-07-17T07:15:07;102301.44;;;41.32;17.93
14117;BME280;7137;51.436;6.544;2022-07-17T07:18:09;102294.47;;;41.16;17.90
14117;BME280;7137;51.436;6.544;2022-07-17T07:21:11;102306.94;;;41.32;17.69
14117;BME280;7137;51.436;6.544;2022-07-17T07:24:12;102303.75;;;40.89;18.21
14117;BME280;7137;51.436;6.544;2022-07-17T07:27:15;102317.16;;;40.44;18.59
14117;BME280;7137;51.436;6.544;2022-07-17T07:30:17;102317.66;;;40.94;17.72
14117;BME280;7137;51.436;6.544;2022-07-17T07:33:18;102326.53;;;42.27;16.37
14117;BME280;7137;51.436;6.544;2022-07-17T07:36:20;102320.34;;;43.01;15.86
14117;BME280;7137;51.436;6.544;2022-07-17T07:39:21;102329.84;;;41.84;16.81
14117;BME280;7137;51.436;6.544;2022-07-17T07:42:24;102327.31;;;41.83;16.89
14117;BME280;7137;51.436;6.544;2022-07-17T07:45:26;102329.09;;;40.98;17.81
14117;BME280;7137;51.436;6.544;2022-07-17T07:48:28;102333.63;;;42.41;16.73
14117;BME280;7137;51.436;6.544;2022-07-17T07:51:29;102327.81;;;42.24;15.88
14117;BME280;7137;51.436;6.544;2022-07-17T07:54:31;102339.97;;;43.54;15.39
14117;BME280;7137;51.436;6.544;2022-07-17T07:57:34;102348.72;;;42.70;16.20
14117;BME280;7137;51.436;6.544;2022-07-17T08:00:37;102342.00;;;42.15;16.44
14117;BME280;7137;51.436;6.544;2022-07-17T08:03:39;102337.81;;;39.64;18.13
14117;BME280;7137;51.436;6.544;2022-07-17T08:06:41;102334.66;;;39.61;18.62
14117;BME280;7137;51.436;6.544;2022-07-17T08:09:43;102331.59;;;39.77;19.10
14117;BME280;7137;51.436;6.544;2022-07-17T08:12:46;102341.94;;;41.57;17.33
14117;BME280;7137;51.436;6.544;2022-07-17T08:15:47;102338.88;;;42.11;16.80
14117;BME280;7137;51.436;6.544;2022-07-17T08:18:49;102346.78;;;42.71;15.28
14117;BME280;7137;51.436;6.544;2022-07-17T08:21:51;102342.28;;;42.45;15.88
14117;BME280;7137;51.436;6.544;2022-07-17T08:24:52;102354.25;;;43.20;15.32
14117;BME280;7137;51.436;6.544;2022-07-17T08:27:55;102341.50;;;42.37;15.96
14117;BME280;7137;51.436;6.544;2022-07-17T08:30:57;102343.31;;;40.40;17.24
14117;BME280;7137;51.436;6.544;2022-07-17T08:33:58;102339.56;;;40.74;17.07
14117;BME280;7137;51.436;6.544;2022-07-17T08:37:00;102338.66;;;39.65;18.38
14117;BME280;7137;51.436;6.544;2022-07-17T08:40:02;102335.75;;;40.01;18.11
14117;BME280;7137;51.436;6.544;2022-07-17T08:43:07;102320.41;;;39.16;19.57
14117;BME280;7137;51.436;6.544;2022-07-17T08:46:10;102316.00;;;37.48;21.09
14117;BME280;7137;51.436;6.544;2022-07-17T08:49:14;102320.13;;;38.68;19.64
14117;BME280;7137;51.436;6.544;2022-07-17T08:52:17;102332.19;;;40.75;17.56
14117;BME280;7137;51.436;6.544;2022-07-17T08:55:18;102337.31;;;40.84;17.63
14117;BME280;7137;51.436;6.544;2022-07-17T08:58:21;102327.09;;;39.41;19.01
14117;BME280;7137;51.436;6.544;2022-07-17T09:01:23;102326.56;;;38.60;19.04
14117;BME280;7137;51.436;6.544;2022-07-17T09:04:25;102339.06;;;37.45;20.20
14117;BME280;7137;51.436;6.544;2022-07-17T09:07:26;102322.06;;;38.02;19.72
14117;BME280;7137;51.436;6.544;2022-07-17T09:10:36;102331.72;;;40.45;18.25
14117;BME280;7137;51.436;6.544;2022-07-17T09:13:45;102325.56;;;42.01;16.42
14117;BME280;7137;51.436;6.544;2022-07-17T09:16:51;102332.09;;;42.83;15.79
14117;BME280;7137;51.436;6.544;2022-07-17T09:19:53;102322.91;;;40.56;17.08
14117;BME280;7137;51.436;6.544;2022-07-17T09:22:55;102326.31;;;40.91;17.03
14117;BME280;7137;51.436;6.544;2022-07-17T09:25:57;102313.34;;;38.64;18.90
14117;BME280;7137;51.436;6.544;2022-07-17T09:29:02;102310.97;;;39.18;18.34
14117;BME280;7137;51.436;6.544;2022-07-17T09:32:05;102320.22;;;38.75;18.60
14117;BME280;7137;51.436;6.544;2022-07-17T09:35:09;102320.66;;;40.25;17.75
14117;BME280;7137;51.436;6.544;2022-07-17T09:38:12;102317.91;;;39.77;18.04
14117;BME280;7137;51.436;6.544;2022-07-17T09:41:15;102322.50;;;39.70;18.10
14117;BME280;7137;51.436;6.544;2022-07-17T09:44:21;102321.00;;;40.63;17.09
14117;BME280;7137;51.436;6.544;2022-07-17T09:47:23;102317.75;;;39.85;18.04
14117;BME280;7137;51.436;6.544;2022-07-17T09:50:26;102314.97;;;39.51;18.08
14117;BME280;7137;51.436;6.544;2022-07-17T09:53:30;102309.28;;;35.65;21.93
14117;BME280;7137;51.436;6.544;2022-07-17T09:56:36;102312.63;;;34.53;22.99
14117;BME280;7137;51.436;6.544;2022-07-17T09:59:40;102310.97;;;33.15;23.57
14117;BME280;7137;51.436;6.544;2022-07-17T10:02:42;102319.47;;;37.04;20.41
14117;BME280;7137;51.436;6.544;2022-07-17T10:05:44;102319.59;;;35.78;21.57
14117;BME280;7137;51.436;6.544;2022-07-17T10:08:46;102319.47;;;34.66;21.80
14117;BME280;7137;51.436;6.544;2022-07-17T10:11:48;102319.00;;;35.52;21.31
14117;BME280;7137;51.436;6.544;2022-07-17T10:14:55;102318.72;;;37.10;20.76
14117;BME280;7137;51.436;6.544;2022-07-17T10:18:04;102317.63;;;35.56;20.64
14117;BME280;7137;51.436;6.544;2022-07-17T10:21:10;102310.84;;;35.27;22.76
14117;BME280;7137;51.436;6.544;2022-07-17T10:24:12;102316.97;;;35.13;21.79
14117;BME280;7137;51.436;6.544;2022-07-17T10:27:21;102313.09;;;35.95;20.43
14117;BME280;7137;51.436;6.544;2022-07-17T10:30:26;102313.25;;;31.64;25.82
14117;BME280;7137;51.436;6.544;2022-07-17T10:33:28;102305.63;;;33.92;23.37
14117;BME280;7137;51.436;6.544;2022-07-17T10:36:34;102305.50;;;30.93;27.08
14117;BME280;7137;51.436;6.544;2022-07-17T10:39:36;102300.25;;;31.11;26.43
14117;BME280;7137;51.436;6.544;2022-07-17T10:42:47;102306.63;;;31.10;25.82
14117;BME280;7137;51.436;6.544;2022-07-17T10:45:50;102299.25;;;30.24;28.25
14117;BME280;7137;51.436;6.544;2022-07-17T10:48:52;102291.81;;;30.56;27.90
14117;BME280;7137;51.436;6.544;2022-07-17T10:51:53;102300.09;;;30.74;27.33
14117;BME280;7137;51.436;6.544;2022-07-17T10:54:57;102294.00;;;29.40;29.35
14117;BME280;7137;51.436;6.544;2022-07-17T10:57:58;102296.25;;;28.71;29.77
14117;BME280;7137;51.436;6.544;2022-07-17T11:01:06;102293.41;;;28.41;29.24
14117;BME280;7137;51.436;6.544;2022-07-17T11:04:10;102296.75;;;27.88;30.31
14117;BME280;7137;51.436;6.544;2022-07-17T11:07:12;102289.88;;;27.95;32.05
14117;BME280;7137;51.436;6.544;2022-07-17T11:10:13;102298.91;;;28.28;30.56
14117;BME280;7137;51.436;6.544;2022-07-17T11:13:15;102292.56;;;28.18;30.72
14117;BME280;7137;51.436;6.544;2022-07-17T11:16:26;102284.88;;;27.68;31.52
14117;BME280;7137;51.436;6.544;2022-07-17T11:19:30;102276.31;;;27.86;30.21
14117;BME280;7137;51.436;6.544;2022-07-17T11:22:32;102292.28;;;27.07;31.63
14117;BME280;7137;51.436;6.544;2022-07-17T11:25:33;102286.53;;;26.88;31.78
14117;BME280;7137;51.436;6.544;2022-07-17T11:28:37;102282.34;;;27.32;30.80
14117;BME280;7137;51.436;6.544;2022-07-17T11:31:41;102283.34;;;27.53;30.08
14117;BME280;7137;51.436;6.544;2022-07-17T11:34:43;102286.22;;;27.74;30.75
14117;BME280;7137;51.436;6.544;2022-07-17T11:37:48;102284.84;;;28.13;29.15
14117;BME280;7137;51.436;6.544;2022-07-17T11:40:49;102281.91;;;29.35;27.86
14117;BME280;7137;51.436;6.544;2022-07-17T11:43:51;102279.81;;;28.85;27.21
14117;BME280;7137;51.436;6.544;2022-07-17T11:46:54;102281.91;;;29.55;26.38
14117;BME280;7137;51.436;6.544;2022-07-17T11:50:04;102280.91;;;28.51;28.31
14117;BME280;7137;51.436;6.544;2022-07-17T11:53:06;102269.41;;;27.37;30.08
14117;BME280;7137;51.436;6.544;2022-07-17T11:56:08;102260.03;;;27.31;28.43
14117;BME280;7137;51.436;6.544;2022-07-17T11:59:10;102256.78;;;27.72;28.78
14117;BME280;7137;51.436;6.544;2022-07-17T12:02:14;102255.34;;;27.91;29.85
14117;BME280;7137;51.436;6.544;2022-07-17T12:05:24;102258.69;;;28.49;29.71
14117;BME280;7137;51.436;6.544;2022-07-17T12:08:27;102244.56;;;28.56;29.48
14117;BME280;7137;51.436;6.544;2022-07-17T12:11:28;102248.34;;;28.33;29.90
14117;BME280;7137;51.436;6.544;2022-07-17T12:14:30;102253.25;;;27.72;29.89
14117;BME280;7137;51.436;6.544;2022-07-17T12:17:39;102258.13;;;27.67;31.48
14117;BME280;7137;51.436;6.544;2022-07-17T12:20:42;102256.03;;;27.59;31.10
14117;BME280;7137;51.436;6.544;2022-07-17T12:23:44;102250.31;;;27.86;29.97
14117;BME280;7137;51.436;6.544;2022-07-17T12:26:45;102247.09;;;27.59;30.60
14117;BME280;7137;51.436;6.544;2022-07-17T12:29:47;102252.97;;;28.08;29.58
14117;BME280;7137;51.436;6.544;2022-07-17T12:32:50;102250.75;;;28.25;30.17
14117;BME280;7137;51.436;6.544;2022-07-17T12:35:51;102248.78;;;28.49;30.66
14117;BME280;7137;51.436;6.544;2022-07-17T12:38:53;102255.53;;;28.76;30.13
14117;BME280;7137;51.436;6.544;2022-07-17T12:41:56;102237.94;;;28.72;29.54
14117;BME280;7137;51.436;6.544;2022-07-17T12:44:58;102244.81;;;28.85;29.88
14117;BME280;7137;51.436;6.544;2022-07-17T12:48:00;102238.31;;;28.99;29.74
14117;BME280;7137;51.436;6.544;2022-07-17T12:51:02;102228.72;;;29.06;29.41
14117;BME280;7137;51.436;6.544;2022-07-17T12:54:04;102237.16;;;28.49;29.77
14117;BME280;7137;51.436;6.544;2022-07-17T12:57:06;102232.97;;;27.79;30.44
14117;BME280;7137;51.436;6.544;2022-07-17T13:00:09;102225.50;;;28.05;29.95
14117;BME280;7137;51.436;6.544;2022-07-17T13:03:12;102233.31;;;27.97;30.09
14117;BME280;7137;51.436;6.544;2022-07-17T13:06:14;102235.66;;;27.90;30.08
14117;BME280;7137;51.436;6.544;2022-07-17T13:09:15;102225.97;;;28.21;29.95
14117;BME280;7137;51.436;6.544;2022-07-17T13:12:17;102229.91;;;27.95;29.66
14117;BME280;7137;51.436;6.544;2022-07-17T13:15:18;102224.28;;;27.87;30.27
14117;BME280;7137;51.436;6.544;2022-07-17T13:18:21;102213.75;;;28.28;29.54
14117;BME280;7137;51.436;6.544;2022-07-17T13:21:24;102225.28;;;28.51;28.95
14117;BME280;7137;51.436;6.544;2022-07-17T13:24:25;102221.56;;;28.63;28.54
14117;BME280;7137;51.436;6.544;2022-07-17T13:27:27;102233.19;;;28.21;28.75
14117;BME280;7137;51.436;6.544;2022-07-17T13:30:29;102216.59;;;27.93;29.33
14117;BME280;7137;51.436;6.544;2022-07-17T13:33:32;102211.16;;;28.38;28.66
14117;BME280;7137;51.436;6.544;2022-07-17T13:36:33;102220.56;;;28.44;27.25
14117;BME280;7137;51.436;6.544;2022-07-17T13:39:35;102212.41;;;28.34;27.85
14117;BME280;7137;51.436;6.544;2022-07-17T13:42:37;102211.38;;;27.92;27.73
14117;BME280;7137;51.436;6.544;2022-07-17T13:45:39;102210.00;;;27.97;26.78
14117;BME280;7137;51.436;6.544;2022-07-17T13:48:42;102199.28;;;28.41;26.37
14117;BME280;7137;51.436;6.544;2022-07-17T13:51:43;102204.66;;;28.41;26.00
14117;BME280;7137;51.436;6.544;2022-07-17T13:54:45;102196.84;;;28.69;25.46
14117;BME280;7137;51.436;6.544;2022-07-17T13:57:47;102194.22;;;28.79;24.88
14117;BME280;7137;51.436;6.544;2022-07-17T14:00:48;102187.69;;;28.40;25.16
14117;BME280;7137;51.436;6.544;2022-07-17T14:03:52;102192.63;;;28.13;24.79
14117;BME280;7137;51.436;6.544;2022-07-17T14:06:53;102185.00;;;28.40;24.46
14117;BME280;7137;51.436;6.544;2022-07-17T14:09:55;102193.38;;;28.58;24.96
14117;BME280;7137;51.436;6.544;2022-07-17T14:12:56;102178.31;;;28.12;24.51
14117;BME280;7137;51.436;6.544;2022-07-17T14:15:58;102175.94;;;28.41;24.18
14117;BME280;7137;51.436;6.544;2022-07-17T14:19:01;102184.34;;;28.48;23.30
14117;BME280;7137;51.436;6.544;2022-07-17T14:22:02;102179.34;;;28.43;23.36
14117;BME280;7137;51.436;6.544;2022-07-17T14:25:05;102174.66;;;28.56;23.32
14117;BME280;7137;51.436;6.544;2022-07-17T14:28:06;102171.59;;;28.61;23.70
14117;BME280;7137;51.436;6.544;2022-07-17T14:31:08;102157.66;;;28.24;24.86
14117;BME280;7137;51.436;6.544;2022-07-17T14:34:12;102154.56;;;28.39;25.03
14117;BME280;7137;51.436;6.544;2022-07-17T14:37:13;102150.31;;;28.26;25.55
14117;BME280;7137;51.436;6.544;2022-07-17T14:40:15;102137.53;;;28.50;25.55
14117;BME280;7137;51.436;6.544;2022-07-17T14:43:17;102139.25;;;28.93;25.12
14117;BME280;7137;51.436;6.544;2022-07-17T14:46:19;102142.81;;;29.24;24.29
14117;BME280;7137;51.436;6.544;2022-07-17T14:49:23;102143.81;;;29.53;24.07
14117;BME280;7137;51.436;6.544;2022-07-17T14:52:24;102122.88;;;29.67;24.88
14117;BME280;7137;51.436;6.544;2022-07-17T14:55:26;102124.00;;;29.64;23.95
14117;BME280;7137;51.436;6.544;2022-07-17T14:58:27;102119.22;;;29.77;24.33
14117;BME280;7137;51.436;6.544;2022-07-17T15:01:29;102124.59;;;29.77;23.47
14117;BME280;7137;51.436;6.544;2022-07-17T15:04:32;102116.75;;;29.24;24.36
14117;BME280;7137;51.436;6.544;2022-07-17T15:07:36;102115.59;;;29.17;24.09
14117;BME280;7137;51.436;6.544;2022-07-17T15:10:37;102106.94;;;29.14;23.78
14117;BME280;7137;51.436;6.544;2022-07-17T15:13:39;102101.78;;;29.01;24.60
14117;BME280;7137;51.436;6.544;2022-07-17T15:16:40;102109.69;;;28.82;24.56
14117;BME280;7137;51.436;6.544;2022-07-17T15:19:43;102105.41;;;28.90;24.81
14117;BME280;7137;51.436;6.544;2022-07-17T15:22:45;102107.34;;;28.67;24.70
14117;BME280;7137;51.436;6.544;2022-07-17T15:25:46;102114.81;;;29.06;24.94
14117;BME280;7137;51.436;6.544;2022-07-17T15:28:48;102111.72;;;29.10;24.41
14117;BME280;7137;51.436;6.544;2022-07-17T15:31:49;102116.38;;;29.39;24.18
14117;BME280;7137;51.436;6.544;2022-07-17T15:34:52;102115.19;;;29.52;24.20
14117;BME280;7137;51.436;6.544;2022-07-17T15:37:54;102114.47;;;28.89;24.69
14117;BME280;7137;51.436;6.544;2022-07-17T15:40:56;102116.00;;;28.71;24.41
14117;BME280;7137;51.436;6.544;2022-07-17T15:43:58;102119.81;;;28.68;24.85
14117;BME280;7137;51.436;6.544;2022-07-17T15:46:59;102125.97;;;28.80;24.69
14117;BME280;7137;51.436;6.544;2022-07-17T15:50:03;102121.97;;;29.16;24.40
14117;BME280;7137;51.436;6.544;2022-07-17T15:53:04;102112.72;;;29.09;24.94
14117;BME280;7137;51.436;6.544;2022-07-17T15:56:06;102112.28;;;29.04;25.68
14117;BME280;7137;51.436;6.544;2022-07-17T15:59:07;102113.78;;;28.76;25.72
14117;BME280;7137;51.436;6.544;2022-07-17T16:02:09;102105.19;;;28.61;25.96
14117;BME280;7137;51.436;6.544;2022-07-17T16:05:13;102099.56;;;28.44;26.11